sensor_id;sensor_type;location;lat;lon;timestamp;P1;durP1;ratioP1;P2;durP2;ratioP2
46116;SDS011;32591;48.102;11.772;2023-08-31T00:00:10;2.35;;;1.67;;
46116;SDS011;32591;48.102;11.772;2023-08-31T00:02:40;1.95;;;1.65;;
46116;SDS011;32591;48.102;11.772;2023-08-31T00:05:07;2.33;;;1.83;;
46116;SDS011;32591;48.102;11.772;2023-08-31T00:07:34;2.03;;;1.50;;
46116;SDS011;32591;48.102;11.772;2023-08-31T00:10:01;1.90;;;1.60;;
46116;SDS011;32591;48.102;11.772;2023-08-31T00:12:34;3.05;;;1.67;;
46116;SDS011;32591;48.102;11.772;2023-08-31T00:15:02;2.38;;;1.73;;
46116;SDS011;32591;48.102;11.772;2023-08-31T00:17:30;2.83;;;1.80;;
46116;SDS011;32591;48.102;11.772;2023-08-31T00:19:59;2.25;;;1.40;;
46116;SDS011;32591;48.102;11.772;2023-08-31T00:22:26;2.20;;;1.70;;
46116;SDS011;32591;48.102;11.772;2023-08-31T00:24:53;3.75;;;1.90;;
46116;SDS011;32591;48.102;11.772;2023-08-31T00:27:20;3.03;;;1.80;;
46116;SDS011;32591;48.102;11.772;2023-08-31T00:29:47;2.10;;;1.90;;
46116;SDS011;32591;48.102;11.772;2023-08-31T00:32:15;2.35;;;1.70;;
46116;SDS011;32591;48.102;11.772;2023-08-31T00:34:43;3.35;;;1.92;;
46116;SDS011;32591;48.102;11.772;2023-08-31T00:37:11;2.22;;;1.52;;
46116;SDS011;32591;48.102;11.772;2023-08-31T00:39:38;2.53;;;1.77;;
46116;SDS011;32591;48.102;11.772;2023-08-31T00:42:05;3.33;;;2.00;;
46116;SDS011;32591;48.102;11.772;2023-08-31T00:44:33;3.95;;;1.70;;
46116;SDS011;32591;48.102;11.772;2023-08-31T00:47:00;3.28;;;1.90;;
46116;SDS011;32591;48.102;11.772;2023-08-31T00:49:28;2.30;;;1.67;;
46116;SDS011;32591;48.102;11.772;2023-08-31T00:51:55;2.45;;;1.83;;
46116;SDS011;32591;48.102;11.772;2023-08-31T00:54:24;2.38;;;1.65;;
46116;SDS011;32591;48.102;11.772;2023-08-31T00:56:52;2.03;;;1.63;;
46116;SDS011;32591;48.102;11.772;2023-08-31T00:59:20;2.88;;;1.95;;
46116;SDS011;32591;48.102;11.772;2023-08-31T01:01:49;2.20;;;1.83;;
46116;SDS011;32591;48.102;11.772;2023-08-31T01:06:59;3.53;;;1.45;;
46116;SDS011;32591;48.102;11.772;2023-08-31T01:09:36;2.65;;;1.58;;
46116;SDS011;32591;48.102;11.772;2023-08-31T01:12:11;3.38;;;1.60;;
46116;SDS011;32591;48.102;11.772;2023-08-31T01:14:47;3.38;;;1.80;;
46116;SDS011;32591;48.102;11.772;2023-08-31T01:17:23;3.33;;;1.70;;
46116;SDS011;32591;48.102;11.772;2023-08-31T01:19:55;2.30;;;1.70;;
46116;SDS011;32591;48.102;11.772;2023-08-31T01:22:27;2.72;;;1.55;;
46116;SDS011;32591;48.102;11.772;2023-08-31T01:24:59;2.75;;;1.83;;
46116;SDS011;32591;48.102;11.772;2023-08-31T01:27:29;2.30;;;2.05;;
46116;SDS011;32591;48.102;11.772;2023-08-31T01:29:56;2.20;;;1.60;;
46116;SDS011;32591;48.102;11.772;2023-08-31T01:32:24;2.67;;;1.70;;
46116;SDS011;32591;48.102;11.772;2023-08-31T01:34:51;2.17;;;1.50;;
46116;SDS011;32591;48.102;11.772;2023-08-31T01:37:20;1.98;;;1.63;;
46116;SDS011;32591;48.102;11.772;2023-08-31T01:39:55;1.83;;;1.67;;
46116;SDS011;32591;48.102;11.772;2023-08-31T01:42:30;2.60;;;1.67;;
46116;SDS011;32591;48.102;11.772;2023-08-31T01:44:58;1.75;;;1.38;;
46116;SDS011;32591;48.102;11.772;2023-08-31T01:47:27;2.50;;;1.83;;
46116;SDS011;32591;48.102;11.772;2023-08-31T01:49:54;2.58;;;1.90;;
46116;SDS011;32591;48.102;11.772;2023-08-31T01:52:21;3.95;;;2.72;;
46116;SDS011;32591;48.102;11.772;2023-08-31T01:54:48;3.70;;;1.70;;
46116;SDS011;32591;48.102;11.772;2023-08-31T01:57:16;2.65;;;1.90;;
46116;SDS011;32591;48.102;11.772;2023-08-31T01:59:43;1.98;;;1.48;;
46116;SDS011;32591;48.102;11.772;2023-08-31T02:02:10;4.68;;;1.70;;
46116;SDS011;32591;48.102;11.772;2023-08-31T02:04:37;2.25;;;1.60;;
46116;SDS011;32591;48.102;11.772;2023-08-31T02:07:04;2.28;;;1.52;;
46116;SDS011;32591;48.102;11.772;2023-08-31T02:09:31;2.35;;;1.70;;
46116;SDS011;32591;48.102;11.772;2023-08-31T02:11:58;2.65;;;1.73;;
46116;SDS011;32591;48.102;11.772;2023-08-31T02:14:26;2.50;;;1.70;;
46116;SDS011;32591;48.102;11.772;2023-08-31T02:16:55;2.38;;;1.70;;
46116;SDS011;32591;48.102;11.772;2023-08-31T02:19:22;3.33;;;1.42;;
46116;SDS011;32591;48.102;11.772;2023-08-31T02:21:49;2.15;;;1.67;;
46116;SDS011;32591;48.102;11.772;2023-08-31T02:24:16;2.05;;;1.60;;
46116;SDS011;32591;48.102;11.772;2023-08-31T02:26:43;2.17;;;1.58;;
46116;SDS011;32591;48.102;11.772;2023-08-31T02:29:10;2.38;;;1.80;;
46116;SDS011;32591;48.102;11.772;2023-08-31T02:31:38;2.03;;;1.67;;
46116;SDS011;32591;48.102;11.772;2023-08-31T02:34:06;2.63;;;1.70;;
46116;SDS011;32591;48.102;11.772;2023-08-31T02:36:33;4.70;;;1.70;;
46116;SDS011;32591;48.102;11.772;2023-08-31T02:39:00;3.08;;;1.60;;
46116;SDS011;32591;48.102;11.772;2023-08-31T02:41:28;2.15;;;1.55;;
46116;SDS011;32591;48.102;11.772;2023-08-31T02:43:55;2.35;;;1.63;;
46116;SDS011;32591;48.102;11.772;2023-08-31T02:46:22;3.55;;;2.55;;
46116;SDS011;32591;48.102;11.772;2023-08-31T02:48:51;2.67;;;1.95;;
46116;SDS011;32591;48.102;11.772;2023-08-31T02:51:17;2.72;;;2.25;;
46116;SDS011;32591;48.102;11.772;2023-08-31T02:53:44;4.55;;;2.78;;
46116;SDS011;32591;48.102;11.772;2023-08-31T02:56:11;5.72;;;2.65;;
46116;SDS011;32591;48.102;11.772;2023-08-31T02:58:38;3.70;;;2.83;;
46116;SDS011;32591;48.102;11.772;2023-08-31T03:01:06;3.78;;;3.05;;
46116;SDS011;32591;48.102;11.772;2023-08-31T03:03:36;5.00;;;3.50;;
46116;SDS011;32591;48.102;11.772;2023-08-31T03:06:05;6.38;;;3.92;;
46116;SDS011;32591;48.102;11.772;2023-08-31T03:08:33;7.47;;;3.58;;
46116;SDS011;32591;48.102;11.772;2023-08-31T03:11:01;5.45;;;3.35;;
46116;SDS011;32591;48.102;11.772;2023-08-31T03:13:28;6.72;;;3.53;;
46116;SDS011;32591;48.102;11.772;2023-08-31T03:16:01;4.38;;;3.60;;
46116;SDS011;32591;48.102;11.772;2023-08-31T03:18:28;4.40;;;3.30;;
46116;SDS011;32591;48.102;11.772;2023-08-31T03:20:55;5.05;;;3.65;;
46116;SDS011;32591;48.102;11.772;2023-08-31T03:23:24;4.40;;;2.90;;
46116;SDS011;32591;48.102;11.772;2023-08-31T03:25:51;4.85;;;2.97;;
46116;SDS011;32591;48.102;11.772;2023-08-31T03:28:18;4.65;;;3.60;;
46116;SDS011;32591;48.102;11.772;2023-08-31T03:30:53;4.88;;;3.22;;
46116;SDS011;32591;48.102;11.772;2023-08-31T03:33:21;6.20;;;3.47;;
46116;SDS011;32591;48.102;11.772;2023-08-31T03:35:48;7.68;;;2.97;;
46116;SDS011;32591;48.102;11.772;2023-08-31T03:38:15;5.70;;;3.35;;
46116;SDS011;32591;48.102;11.772;2023-08-31T03:40:43;3.67;;;2.67;;
46116;SDS011;32591;48.102;11.772;2023-08-31T03:43:19;2.92;;;2.30;;
46116;SDS011;32591;48.102;11.772;2023-08-31T03:45:46;3.80;;;2.70;;
46116;SDS011;32591;48.102;11.772;2023-08-31T03:48:14;2.90;;;2.08;;
46116;SDS011;32591;48.102;11.772;2023-08-31T03:50:41;3.13;;;1.75;;
46116;SDS011;32591;48.102;11.772;2023-08-31T03:53:08;2.45;;;1.80;;
46116;SDS011;32591;48.102;11.772;2023-08-31T03:55:35;2.33;;;1.73;;
46116;SDS011;32591;48.102;11.772;2023-08-31T03:58:04;3.70;;;1.90;;
46116;SDS011;32591;48.102;11.772;2023-08-31T04:00:31;3.05;;;1.95;;
46116;SDS011;32591;48.102;11.772;2023-08-31T04:02:58;4.10;;;1.80;;
46116;SDS011;32591;48.102;11.772;2023-08-31T04:05:25;2.75;;;1.77;;
46116;SDS011;32591;48.102;11.772;2023-08-31T04:07:52;2.47;;;1.60;;
46116;SDS011;32591;48.102;11.772;2023-08-31T04:10:19;3.95;;;1.75;;
46116;SDS011;32591;48.102;11.772;2023-08-31T04:12:46;3.05;;;1.98;;
46116;SDS011;32591;48.102;11.772;2023-08-31T04:15:14;7.30;;;2.28;;
46116;SDS011;32591;48.102;11.772;2023-08-31T04:17:41;2.83;;;1.98;;
46116;SDS011;32591;48.102;11.772;2023-08-31T04:20:09;4.50;;;2.40;;
46116;SDS011;32591;48.102;11.772;2023-08-31T04:22:37;3.45;;;2.10;;
46116;SDS011;32591;48.102;11.772;2023-08-31T04:25:04;3.45;;;2.22;;
46116;SDS011;32591;48.102;11.772;2023-08-31T04:27:34;2.83;;;1.98;;
46116;SDS011;32591;48.102;11.772;2023-08-31T04:30:04;3.67;;;2.40;;
46116;SDS011;32591;48.102;11.772;2023-08-31T04:32:43;4.85;;;2.45;;
46116;SDS011;32591;48.102;11.772;2023-08-31T04:35:11;4.15;;;2.10;;
46116;SDS011;32591;48.102;11.772;2023-08-31T04:37:39;3.05;;;2.00;;
46116;SDS011;32591;48.102;11.772;2023-08-31T04:40:06;4.18;;;1.90;;
46116;SDS011;32591;48.102;11.772;2023-08-31T04:42:34;3.03;;;2.40;;
46116;SDS011;32591;48.102;11.772;2023-08-31T04:45:02;3.00;;;1.98;;
46116;SDS011;32591;48.102;11.772;2023-08-31T04:47:30;3.88;;;2.53;;
46116;SDS011;32591;48.102;11.772;2023-08-31T04:49:59;3.15;;;2.33;;
46116;SDS011;32591;48.102;11.772;2023-08-31T04:52:26;3.20;;;2.15;;
46116;SDS011;32591;48.102;11.772;2023-08-31T04:54:53;2.83;;;2.00;;
46116;SDS011;32591;48.102;11.772;2023-08-31T04:57:20;3.30;;;2.08;;
46116;SDS011;32591;48.102;11.772;2023-08-31T04:59:47;4.68;;;2.50;;
46116;SDS011;32591;48.102;11.772;2023-08-31T05:02:13;2.85;;;2.17;;
46116;SDS011;32591;48.102;11.772;2023-08-31T05:04:40;6.10;;;2.40;;
46116;SDS011;32591;48.102;11.772;2023-08-31T05:07:09;4.03;;;2.45;;
46116;SDS011;32591;48.102;11.772;2023-08-31T05:09:36;3.40;;;2.33;;
46116;SDS011;32591;48.102;11.772;2023-08-31T05:12:03;3.60;;;2.10;;
46116;SDS011;32591;48.102;11.772;2023-08-31T05:14:32;3.28;;;2.17;;
46116;SDS011;32591;48.102;11.772;2023-08-31T05:17:02;3.22;;;2.17;;
46116;SDS011;32591;48.102;11.772;2023-08-31T05:19:29;2.80;;;2.30;;
46116;SDS011;32591;48.102;11.772;2023-08-31T05:21:56;2.92;;;2.20;;
46116;SDS011;32591;48.102;11.772;2023-08-31T05:24:25;4.68;;;2.63;;
46116;SDS011;32591;48.102;11.772;2023-08-31T05:26:52;4.80;;;2.28;;
46116;SDS011;32591;48.102;11.772;2023-08-31T05:29:19;4.50;;;2.58;;
46116;SDS011;32591;48.102;11.772;2023-08-31T05:31:46;3.67;;;2.13;;
46116;SDS011;32591;48.102;11.772;2023-08-31T05:34:15;3.22;;;2.33;;
46116;SDS011;32591;48.102;11.772;2023-08-31T05:36:43;2.80;;;2.08;;
46116;SDS011;32591;48.102;11.772;2023-08-31T05:39:10;2.78;;;1.70;;
46116;SDS011;32591;48.102;11.772;2023-08-31T05:41:41;2.67;;;1.85;;
46116;SDS011;32591;48.102;11.772;2023-08-31T05:44:08;3.03;;;2.20;;
46116;SDS011;32591;48.102;11.772;2023-08-31T05:46:35;4.80;;;2.30;;
46116;SDS011;32591;48.102;11.772;2023-08-31T05:49:03;2.78;;;2.03;;
46116;SDS011;32591;48.102;11.772;2023-08-31T05:51:30;3.78;;;2.00;;
46116;SDS011;32591;48.102;11.772;2023-08-31T05:53:57;2.78;;;1.92;;
46116;SDS011;32591;48.102;11.772;2023-08-31T05:56:24;3.50;;;2.15;;
46116;SDS011;32591;48.102;11.772;2023-08-31T05:58:53;3.75;;;2.10;;
46116;SDS011;32591;48.102;11.772;2023-08-31T06:01:21;2.97;;;1.92;;
46116;SDS011;32591;48.102;11.772;2023-08-31T06:03:48;2.40;;;1.92;;
46116;SDS011;32591;48.102;11.772;2023-08-31T06:06:15;6.57;;;4.88;;
46116;SDS011;32591;48.102;11.772;2023-08-31T06:08:42;4.53;;;2.78;;
46116;SDS011;32591;48.102;11.772;2023-08-31T06:11:09;4.25;;;2.38;;
46116;SDS011;32591;48.102;11.772;2023-08-31T06:13:38;5.97;;;2.92;;
46116;SDS011;32591;48.102;11.772;2023-08-31T06:16:06;4.40;;;3.03;;
46116;SDS011;32591;48.102;11.772;2023-08-31T06:18:33;3.90;;;2.15;;
46116;SDS011;32591;48.102;11.772;2023-08-31T06:21:00;3.10;;;2.00;;
46116;SDS011;32591;48.102;11.772;2023-08-31T06:23:27;3.97;;;2.30;;
46116;SDS011;32591;48.102;11.772;2023-08-31T06:25:54;3.22;;;2.25;;
46116;SDS011;32591;48.102;11.772;2023-08-31T06:28:21;3.47;;;2.50;;
46116;SDS011;32591;48.102;11.772;2023-08-31T06:30:48;3.50;;;2.35;;
46116;SDS011;32591;48.102;11.772;2023-08-31T06:33:17;3.35;;;2.03;;
46116;SDS011;32591;48.102;11.772;2023-08-31T06:35:45;2.85;;;2.22;;
46116;SDS011;32591;48.102;11.772;2023-08-31T06:38:13;3.83;;;2.28;;
46116;SDS011;32591;48.102;11.772;2023-08-31T06:40:41;3.42;;;2.60;;
46116;SDS011;32591;48.102;11.772;2023-08-31T06:43:09;4.75;;;2.92;;
46116;SDS011;32591;48.102;11.772;2023-08-31T06:45:36;3.25;;;2.35;;
46116;SDS011;32591;48.102;11.772;2023-08-31T06:48:03;3.55;;;2.20;;
46116;SDS011;32591;48.102;11.772;2023-08-31T06:50:34;3.25;;;2.30;;
46116;SDS011;32591;48.102;11.772;2023-08-31T06:53:01;3.90;;;2.65;;
46116;SDS011;32591;48.102;11.772;2023-08-31T06:55:29;4.10;;;2.65;;
46116;SDS011;32591;48.102;11.772;2023-08-31T06:57:58;3.33;;;2.20;;
46116;SDS011;32591;48.102;11.772;2023-08-31T07:00:25;3.35;;;2.03;;
46116;SDS011;32591;48.102;11.772;2023-08-31T07:02:53;2.58;;;1.90;;
46116;SDS011;32591;48.102;11.772;2023-08-31T07:05:24;3.70;;;2.58;;
46116;SDS011;32591;48.102;11.772;2023-08-31T07:07:54;3.53;;;2.60;;
46116;SDS011;32591;48.102;11.772;2023-08-31T07:10:21;2.92;;;1.98;;
46116;SDS011;32591;48.102;11.772;2023-08-31T07:12:50;3.05;;;2.30;;
46116;SDS011;32591;48.102;11.772;2023-08-31T07:15:16;3.80;;;3.05;;
46116;SDS011;32591;48.102;11.772;2023-08-31T07:17:44;3.42;;;2.30;;
46116;SDS011;32591;48.102;11.772;2023-08-31T07:20:11;3.35;;;2.15;;
46116;SDS011;32591;48.102;11.772;2023-08-31T07:22:38;4.15;;;2.30;;
46116;SDS011;32591;48.102;11.772;2023-08-31T07:25:08;4.10;;;2.25;;
46116;SDS011;32591;48.102;11.772;2023-08-31T07:27:35;4.43;;;2.40;;
46116;SDS011;32591;48.102;11.772;2023-08-31T07:30:02;3.88;;;2.55;;
46116;SDS011;32591;48.102;11.772;2023-08-31T07:32:31;3.25;;;2.10;;
46116;SDS011;32591;48.102;11.772;2023-08-31T07:34:58;3.65;;;2.47;;
46116;SDS011;32591;48.102;11.772;2023-08-31T07:37:25;3.25;;;2.58;;
46116;SDS011;32591;48.102;11.772;2023-08-31T07:39:52;3.97;;;2.70;;
46116;SDS011;32591;48.102;11.772;2023-08-31T07:42:21;2.85;;;1.88;;
46116;SDS011;32591;48.102;11.772;2023-08-31T07:44:48;3.42;;;2.30;;
46116;SDS011;32591;48.102;11.772;2023-08-31T07:47:15;3.50;;;2.45;;
46116;SDS011;32591;48.102;11.772;2023-08-31T07:49:42;3.03;;;1.92;;
46116;SDS011;32591;48.102;11.772;2023-08-31T07:52:09;2.95;;;1.98;;
46116;SDS011;32591;48.102;11.772;2023-08-31T07:54:36;4.60;;;2.35;;
46116;SDS011;32591;48.102;11.772;2023-08-31T07:57:03;2.88;;;2.15;;
46116;SDS011;32591;48.102;11.772;2023-08-31T07:59:32;2.55;;;1.85;;
46116;SDS011;32591;48.102;11.772;2023-08-31T08:01:59;2.75;;;1.88;;
46116;SDS011;32591;48.102;11.772;2023-08-31T08:04:26;5.30;;;2.83;;
46116;SDS011;32591;48.102;11.772;2023-08-31T08:06:54;6.10;;;2.10;;
46116;SDS011;32591;48.102;11.772;2023-08-31T08:09:21;3.13;;;2.08;;
46116;SDS011;32591;48.102;11.772;2023-08-31T08:11:48;3.38;;;2.50;;
46116;SDS011;32591;48.102;11.772;2023-08-31T08:14:16;4.63;;;2.75;;
46116;SDS011;32591;48.102;11.772;2023-08-31T08:16:44;3.60;;;2.38;;
46116;SDS011;32591;48.102;11.772;2023-08-31T08:19:11;2.50;;;1.77;;
46116;SDS011;32591;48.102;11.772;2023-08-31T08:21:38;3.67;;;2.00;;
46116;SDS011;32591;48.102;11.772;2023-08-31T08:24:05;4.18;;;2.10;;
46116;SDS011;32591;48.102;11.772;2023-08-31T08:26:32;3.58;;;2.28;;
46116;SDS011;32591;48.102;11.772;2023-08-31T08:28:59;2.70;;;1.85;;
46116;SDS011;32591;48.102;11.772;2023-08-31T08:31:26;9.52;;;2.42;;
46116;SDS011;32591;48.102;11.772;2023-08-31T08:33:54;3.20;;;2.13;;
46116;SDS011;32591;48.102;11.772;2023-08-31T08:36:21;4.93;;;1.90;;
46116;SDS011;32591;48.102;11.772;2023-08-31T08:38:48;3.38;;;2.13;;
46116;SDS011;32591;48.102;11.772;2023-08-31T08:41:15;3.60;;;2.25;;
46116;SDS011;32591;48.102;11.772;2023-08-31T08:43:44;3.60;;;2.00;;
46116;SDS011;32591;48.102;11.772;2023-08-31T08:46:14;2.78;;;1.80;;
46116;SDS011;32591;48.102;11.772;2023-08-31T08:48:41;2.85;;;2.28;;
46116;SDS011;32591;48.102;11.772;2023-08-31T08:51:10;3.25;;;1.90;;
46116;SDS011;32591;48.102;11.772;2023-08-31T08:53:38;3.75;;;1.90;;
46116;SDS011;32591;48.102;11.772;2023-08-31T08:56:09;3.47;;;1.88;;
46116;SDS011;32591;48.102;11.772;2023-08-31T08:58:36;4.30;;;1.88;;
46116;SDS011;32591;48.102;11.772;2023-08-31T09:01:03;3.60;;;2.00;;
46116;SDS011;32591;48.102;11.772;2023-08-31T09:03:32;4.18;;;1.65;;
46116;SDS011;32591;48.102;11.772;2023-08-31T09:05:59;3.63;;;1.55;;
46116;SDS011;32591;48.102;11.772;2023-08-31T09:08:29;2.35;;;1.45;;
46116;SDS011;32591;48.102;11.772;2023-08-31T09:10:57;2.05;;;1.40;;
46116;SDS011;32591;48.102;11.772;2023-08-31T09:13:26;4.57;;;2.15;;
46116;SDS011;32591;48.102;11.772;2023-08-31T09:15:55;2.42;;;1.50;;
46116;SDS011;32591;48.102;11.772;2023-08-31T09:18:23;5.03;;;1.98;;
46116;SDS011;32591;48.102;11.772;2023-08-31T09:20:52;4.80;;;1.63;;
46116;SDS011;32591;48.102;11.772;2023-08-31T09:23:22;3.70;;;1.88;;
46116;SDS011;32591;48.102;11.772;2023-08-31T09:25:51;4.72;;;1.98;;
46116;SDS011;32591;48.102;11.772;2023-08-31T09:28:20;3.03;;;1.73;;
46116;SDS011;32591;48.102;11.772;2023-08-31T09:30:49;3.65;;;2.30;;
46116;SDS011;32591;48.102;11.772;2023-08-31T09:33:17;3.33;;;1.70;;
46116;SDS011;32591;48.102;11.772;2023-08-31T09:35:50;2.65;;;1.85;;
46116;SDS011;32591;48.102;11.772;2023-08-31T09:38:18;2.78;;;1.60;;
46116;SDS011;32591;48.102;11.772;2023-08-31T09:40:46;2.55;;;1.42;;
46116;SDS011;32591;48.102;11.772;2023-08-31T09:43:19;2.45;;;1.63;;
46116;SDS011;32591;48.102;11.772;2023-08-31T09:45:48;2.92;;;1.58;;
46116;SDS011;32591;48.102;11.772;2023-08-31T09:48:16;2.85;;;1.42;;
46116;SDS011;32591;48.102;11.772;2023-08-31T09:50:43;2.97;;;1.30;;
46116;SDS011;32591;48.102;11.772;2023-08-31T09:53:11;2.35;;;1.48;;
46116;SDS011;32591;48.102;11.772;2023-08-31T09:55:39;3.67;;;1.65;;
46116;SDS011;32591;48.102;11.772;2023-08-31T09:58:07;3.20;;;1.70;;
46116;SDS011;32591;48.102;11.772;2023-08-31T10:00:36;2.83;;;1.40;;
46116;SDS011;32591;48.102;11.772;2023-08-31T10:03:04;4.60;;;1.83;;
46116;SDS011;32591;48.102;11.772;2023-08-31T10:05:32;2.92;;;1.75;;
46116;SDS011;32591;48.102;11.772;2023-08-31T10:07:59;3.33;;;1.60;;
46116;SDS011;32591;48.102;11.772;2023-08-31T10:10:27;3.45;;;1.73;;
46116;SDS011;32591;48.102;11.772;2023-08-31T10:12:55;2.10;;;1.60;;
46116;SDS011;32591;48.102;11.772;2023-08-31T10:15:24;2.05;;;1.42;;
46116;SDS011;32591;48.102;11.772;2023-08-31T10:17:59;3.75;;;1.70;;
46116;SDS011;32591;48.102;11.772;2023-08-31T10:20:28;3.33;;;1.85;;
46116;SDS011;32591;48.102;11.772;2023-08-31T10:22:57;3.38;;;1.65;;
46116;SDS011;32591;48.102;11.772;2023-08-31T10:25:24;2.35;;;1.50;;
46116;SDS011;32591;48.102;11.772;2023-08-31T10:27:52;3.45;;;1.80;;
46116;SDS011;32591;48.102;11.772;2023-08-31T10:30:25;4.95;;;1.65;;
46116;SDS011;32591;48.102;11.772;2023-08-31T10:35:51;2.47;;;1.52;;
46116;SDS011;32591;48.102;11.772;2023-08-31T10:38:26;2.08;;;1.60;;
46116;SDS011;32591;48.102;11.772;2023-08-31T10:41:02;3.22;;;1.60;;
46116;SDS011;32591;48.102;11.772;2023-08-31T10:43:47;2.28;;;1.45;;
46116;SDS011;32591;48.102;11.772;2023-08-31T10:46:18;2.55;;;1.65;;
46116;SDS011;32591;48.102;11.772;2023-08-31T10:48:55;4.70;;;2.08;;
46116;SDS011;32591;48.102;11.772;2023-08-31T10:51:24;3.28;;;1.88;;
46116;SDS011;32591;48.102;11.772;2023-08-31T10:54:06;1.88;;;1.40;;
46116;SDS011;32591;48.102;11.772;2023-08-31T10:56:52;2.78;;;1.73;;
46116;SDS011;32591;48.102;11.772;2023-08-31T10:59:20;2.67;;;1.88;;
46116;SDS011;32591;48.102;11.772;2023-08-31T11:01:52;4.03;;;1.90;;
46116;SDS011;32591;48.102;11.772;2023-08-31T11:04:24;3.42;;;1.80;;
46116;SDS011;32591;48.102;11.772;2023-08-31T11:07:12;3.35;;;1.65;;
46116;SDS011;32591;48.102;11.772;2023-08-31T11:09:41;4.63;;;1.73;;
46116;SDS011;32591;48.102;11.772;2023-08-31T11:12:10;3.50;;;1.58;;
46116;SDS011;32591;48.102;11.772;2023-08-31T11:14:37;4.60;;;2.58;;
46116;SDS011;32591;48.102;11.772;2023-08-31T11:17:05;2.78;;;1.60;;
46116;SDS011;32591;48.102;11.772;2023-08-31T11:19:35;3.30;;;1.77;;
46116;SDS011;32591;48.102;11.772;2023-08-31T11:22:02;6.28;;;2.15;;
46116;SDS011;32591;48.102;11.772;2023-08-31T11:24:30;2.95;;;1.50;;
46116;SDS011;32591;48.102;11.772;2023-08-31T11:26:58;3.20;;;1.92;;
46116;SDS011;32591;48.102;11.772;2023-08-31T11:29:28;3.30;;;1.90;;
46116;SDS011;32591;48.102;11.772;2023-08-31T11:31:56;3.55;;;1.70;;
46116;SDS011;32591;48.102;11.772;2023-08-31T11:34:25;3.47;;;1.80;;
46116;SDS011;32591;48.102;11.772;2023-08-31T11:36:53;2.40;;;1.50;;
46116;SDS011;32591;48.102;11.772;2023-08-31T11:39:21;3.58;;;1.92;;
46116;SDS011;32591;48.102;11.772;2023-08-31T11:41:50;3.13;;;1.70;;
46116;SDS011;32591;48.102;11.772;2023-08-31T11:44:18;3.60;;;2.22;;
46116;SDS011;32591;48.102;11.772;2023-08-31T11:46:45;4.80;;;2.20;;
46116;SDS011;32591;48.102;11.772;2023-08-31T11:49:15;3.80;;;2.60;;
46116;SDS011;32591;48.102;11.772;2023-08-31T11:51:44;5.47;;;2.45;;
46116;SDS011;32591;48.102;11.772;2023-08-31T11:54:14;5.03;;;2.50;;
46116;SDS011;32591;48.102;11.772;2023-08-31T11:56:43;6.72;;;2.72;;
46116;SDS011;32591;48.102;11.772;2023-08-31T11:59:15;6.75;;;2.58;;
46116;SDS011;32591;48.102;11.772;2023-08-31T12:01:43;7.43;;;2.03;;
46116;SDS011;32591;48.102;11.772;2023-08-31T12:04:13;4.03;;;2.47;;
46116;SDS011;32591;48.102;11.772;2023-08-31T12:06:41;5.70;;;2.17;;
46116;SDS011;32591;48.102;11.772;2023-08-31T12:09:12;5.88;;;3.03;;
46116;SDS011;32591;48.102;11.772;2023-08-31T12:11:40;4.45;;;2.17;;
46116;SDS011;32591;48.102;11.772;2023-08-31T12:14:18;7.68;;;2.42;;
46116;SDS011;32591;48.102;11.772;2023-08-31T12:16:48;7.38;;;2.80;;
46116;SDS011;32591;48.102;11.772;2023-08-31T12:19:16;7.55;;;2.55;;
46116;SDS011;32591;48.102;11.772;2023-08-31T12:21:44;5.22;;;2.65;;
46116;SDS011;32591;48.102;11.772;2023-08-31T12:24:12;5.10;;;2.33;;
46116;SDS011;32591;48.102;11.772;2023-08-31T12:26:43;6.13;;;3.00;;
46116;SDS011;32591;48.102;11.772;2023-08-31T12:29:10;5.88;;;2.45;;
46116;SDS011;32591;48.102;11.772;2023-08-31T12:31:37;4.88;;;2.33;;
46116;SDS011;32591;48.102;11.772;2023-08-31T12:34:04;4.47;;;2.55;;
46116;SDS011;32591;48.102;11.772;2023-08-31T12:36:32;4.10;;;2.30;;
46116;SDS011;32591;48.102;11.772;2023-08-31T12:38:59;4.13;;;2.10;;
46116;SDS011;32591;48.102;11.772;2023-08-31T12:41:31;4.78;;;2.17;;
46116;SDS011;32591;48.102;11.772;2023-08-31T12:44:00;5.97;;;2.35;;
46116;SDS011;32591;48.102;11.772;2023-08-31T12:46:28;2.70;;;1.83;;
46116;SDS011;32591;48.102;11.772;2023-08-31T12:48:55;6.28;;;2.13;;
46116;SDS011;32591;48.102;11.772;2023-08-31T12:51:22;4.38;;;1.90;;
46116;SDS011;32591;48.102;11.772;2023-08-31T12:53:49;4.07;;;2.10;;
46116;SDS011;32591;48.102;11.772;2023-08-31T12:56:16;4.55;;;2.65;;
46116;SDS011;32591;48.102;11.772;2023-08-31T12:58:47;5.50;;;2.20;;
46116;SDS011;32591;48.102;11.772;2023-08-31T13:01:17;4.07;;;1.83;;
46116;SDS011;32591;48.102;11.772;2023-08-31T13:03:44;6.43;;;2.05;;
46116;SDS011;32591;48.102;11.772;2023-08-31T13:06:12;4.80;;;2.50;;
46116;SDS011;32591;48.102;11.772;2023-08-31T13:08:39;4.47;;;1.70;;
46116;SDS011;32591;48.102;11.772;2023-08-31T13:11:06;3.63;;;1.67;;
46116;SDS011;32591;48.102;11.772;2023-08-31T13:13:33;5.78;;;1.90;;
46116;SDS011;32591;48.102;11.772;2023-08-31T13:16:00;3.67;;;1.70;;
46116;SDS011;32591;48.102;11.772;2023-08-31T13:18:29;5.25;;;2.00;;
46116;SDS011;32591;48.102;11.772;2023-08-31T13:20:56;3.97;;;1.60;;
46116;SDS011;32591;48.102;11.772;2023-08-31T13:23:23;3.35;;;1.85;;
46116;SDS011;32591;48.102;11.772;2023-08-31T13:25:51;5.15;;;1.70;;
46116;SDS011;32591;48.102;11.772;2023-08-31T13:28:18;2.58;;;1.67;;
46116;SDS011;32591;48.102;11.772;2023-08-31T13:30:45;4.00;;;1.50;;
46116;SDS011;32591;48.102;11.772;2023-08-31T13:33:12;3.08;;;1.65;;
46116;SDS011;32591;48.102;11.772;2023-08-31T13:35:41;3.88;;;2.30;;
46116;SDS011;32591;48.102;11.772;2023-08-31T13:38:08;5.10;;;2.17;;
46116;SDS011;32591;48.102;11.772;2023-08-31T13:40:35;3.92;;;2.33;;
46116;SDS011;32591;48.102;11.772;2023-08-31T13:43:02;3.53;;;1.85;;
46116;SDS011;32591;48.102;11.772;2023-08-31T13:45:30;3.25;;;1.70;;
46116;SDS011;32591;48.102;11.772;2023-08-31T13:47:57;3.80;;;2.00;;
46116;SDS011;32591;48.102;11.772;2023-08-31T13:50:25;3.55;;;1.80;;
46116;SDS011;32591;48.102;11.772;2023-08-31T13:52:53;3.28;;;1.70;;
46116;SDS011;32591;48.102;11.772;2023-08-31T13:55:21;5.85;;;2.72;;
46116;SDS011;32591;48.102;11.772;2023-08-31T13:57:48;2.53;;;1.60;;
46116;SDS011;32591;48.102;11.772;2023-08-31T14:00:16;2.97;;;1.52;;
46116;SDS011;32591;48.102;11.772;2023-08-31T14:02:44;5.38;;;2.22;;
46116;SDS011;32591;48.102;11.772;2023-08-31T14:05:11;4.38;;;2.00;;
46116;SDS011;32591;48.102;11.772;2023-08-31T14:07:40;4.40;;;1.80;;
46116;SDS011;32591;48.102;11.772;2023-08-31T14:10:08;3.38;;;1.88;;
46116;SDS011;32591;48.102;11.772;2023-08-31T14:12:36;5.75;;;2.25;;
46116;SDS011;32591;48.102;11.772;2023-08-31T14:15:04;4.70;;;2.78;;
46116;SDS011;32591;48.102;11.772;2023-08-31T14:17:32;4.70;;;1.83;;
46116;SDS011;32591;48.102;11.772;2023-08-31T14:19:59;3.63;;;1.73;;
46116;SDS011;32591;48.102;11.772;2023-08-31T14:22:30;4.05;;;2.20;;
46116;SDS011;32591;48.102;11.772;2023-08-31T14:24:57;3.72;;;2.05;;
46116;SDS011;32591;48.102;11.772;2023-08-31T14:27:27;2.53;;;1.73;;
46116;SDS011;32591;48.102;11.772;2023-08-31T14:29:55;2.30;;;1.38;;
46116;SDS011;32591;48.102;11.772;2023-08-31T14:32:23;3.28;;;1.67;;
46116;SDS011;32591;48.102;11.772;2023-08-31T14:34:50;4.80;;;1.88;;
46116;SDS011;32591;48.102;11.772;2023-08-31T14:37:17;4.20;;;1.67;;
46116;SDS011;32591;48.102;11.772;2023-08-31T14:39:44;5.72;;;2.58;;
46116;SDS011;32591;48.102;11.772;2023-08-31T14:42:11;6.32;;;1.83;;
46116;SDS011;32591;48.102;11.772;2023-08-31T14:44:41;3.30;;;1.80;;